CheckWX is a tool to help pilots better visualize weather data.  It is not intended as a substitute for an official pre-flight weather briefing.

02:27:59 UTC

LELL METAR
Sabadell Airport
Sabadell, Spain
Current

28 mins ago

LELL 140200Z AUTO VRB01KT 9999 FEW060 21/19 Q1017
Observed
Jul-14 @ 02:00 UTC
Wind
  • Variable at 1 KTS
Visibility
10,000+ meters
Flight Rules
VFR
Cloud Levels
  • Few at 6,000' AGL
Temperature
21°C / 70°F
Dewpoint
19°C / 66°F
Humidity
88%
Altimeter
30.03" Hg
Pressure
1016.92 hPa
Previous

58 mins ago

LELL 140130Z AUTO VRB01KT 9999 BKN066 22/19 Q1017
Observed
Jul-14 @ 01:30 UTC
Wind
  • Variable at 1 KTS
Visibility
10,000+ meters
Flight Rules
VFR
Cloud Levels
  • Broken at 6,600' AGL
Temperature
22°C / 72°F
Dewpoint
19°C / 66°F
Humidity
83%
Altimeter
30.03" Hg
Pressure
1016.92 hPa
Previous

1 hour ago

LELL 140100Z AUTO 00000KT 9999 SCT066 22/18 Q1018
Observed
Jul-14 @ 01:00 UTC
Visibility
10,000+ meters
Flight Rules
VFR
Cloud Levels
  • Scattered at 6,600' AGL
Temperature
22°C / 72°F
Dewpoint
18°C / 64°F
Humidity
78%
Altimeter
30.06" Hg
Pressure
1017.92 hPa